createdAt,value
2019-04-30T00:01:18.443Z,14.47
2019-04-30T00:03:55.733Z,13.73
2019-04-30T00:06:28.841Z,13.80
2019-04-30T00:08:57.555Z,14.23
2019-04-30T00:11:26.889Z,13.50
2019-04-30T00:13:58.876Z,13.77
2019-04-30T00:16:30.925Z,16.00
2019-04-30T00:19:00.863Z,15.53
2019-04-30T00:21:30.861Z,13.97
2019-04-30T00:24:05.379Z,15.60
2019-04-30T00:26:32.331Z,13.47
2019-04-30T00:29:02.059Z,16.43
2019-04-30T00:31:32.763Z,15.83
2019-04-30T00:34:02.488Z,16.07
2019-04-30T00:36:34.086Z,16.47
2019-04-30T00:39:07.177Z,16.17
2019-04-30T00:41:35.439Z,16.63
2019-04-30T00:44:05.449Z,16.43
2019-04-30T00:46:36.444Z,14.73
2019-04-30T00:49:09.984Z,16.53
2019-04-30T00:51:37.642Z,15.43
2019-04-30T00:54:07.340Z,16.03
2019-04-30T00:56:37.067Z,20.10
2019-04-30T00:59:10.425Z,16.93
2019-04-30T01:01:57.048Z,17.27
2019-04-30T01:04:32.403Z,18.67
2019-04-30T01:07:05.341Z,19.50
2019-04-30T01:09:35.315Z,18.43
2019-04-30T01:12:05.474Z,18.67
2019-04-30T01:14:35.523Z,17.27
2019-04-30T01:17:08.831Z,17.83
2019-04-30T01:19:36.709Z,15.77
2019-04-30T01:22:06.272Z,16.00
2019-04-30T01:24:35.991Z,17.47
2019-04-30T01:27:06.981Z,14.93
2019-04-30T01:29:41.018Z,15.17
2019-04-30T01:32:10.501Z,12.87
2019-04-30T01:34:44.089Z,14.80
2019-04-30T01:37:11.085Z,14.40
2019-04-30T01:39:40.801Z,12.70
2019-04-30T01:42:11.448Z,13.23
2019-04-30T01:44:43.444Z,16.40
2019-04-30T01:47:12.796Z,13.53
2019-04-30T01:49:44.760Z,13.50
2019-04-30T01:52:13.655Z,16.93
2019-04-30T01:54:43.390Z,12.03
2019-04-30T01:57:33.499Z,12.87
2019-04-30T02:00:14.911Z,12.40
2019-04-30T02:02:45.654Z,11.73
2019-04-30T02:05:15.526Z,14.10
2019-04-30T02:07:46.024Z,11.60
2019-04-30T02:10:16.203Z,15.20
2019-04-30T02:12:45.948Z,13.60
2019-04-30T02:15:15.672Z,13.57
2019-04-30T02:17:45.405Z,14.20
2019-04-30T02:20:15.087Z,11.20
2019-04-30T02:22:44.801Z,14.40
2019-04-30T02:25:14.433Z,15.90
2019-04-30T02:27:44.091Z,14.00
2019-04-30T02:30:13.904Z,15.43
2019-04-30T02:32:44.112Z,14.63
2019-04-30T02:35:30.780Z,15.30
2019-04-30T02:38:13.554Z,16.17
2019-04-30T02:40:43.177Z,14.57
2019-04-30T02:43:14.184Z,15.27
2019-04-30T02:45:46.420Z,16.10
2019-04-30T02:48:19.367Z,14.93
2019-04-30T02:50:50.549Z,14.97
2019-04-30T02:53:56.236Z,16.03
2019-04-30T02:56:27.117Z,12.87
2019-04-30T02:59:03.200Z,15.07
2019-04-30T03:01:30.493Z,11.67
2019-04-30T03:04:00.511Z,13.70
2019-04-30T03:06:30.586Z,13.53
2019-04-30T03:09:01.202Z,17.70
2019-04-30T03:11:31.340Z,14.40
2019-04-30T03:14:00.902Z,13.83
2019-04-30T03:16:40.173Z,13.77
2019-04-30T03:19:20.016Z,15.83
2019-04-30T03:22:11.127Z,15.23
2019-04-30T03:24:42.941Z,13.03
2019-04-30T03:27:12.065Z,14.90
2019-04-30T03:29:41.786Z,13.83
2019-04-30T03:32:13.253Z,15.40
2019-04-30T03:34:42.960Z,15.57
2019-04-30T03:37:12.976Z,15.53
2019-04-30T03:39:42.644Z,11.93
2019-04-30T03:42:12.388Z,12.37
2019-04-30T03:44:42.448Z,14.33
2019-04-30T03:47:11.988Z,11.93
2019-04-30T03:49:41.758Z,13.17
2019-04-30T03:52:13.291Z,13.63
2019-04-30T03:54:42.769Z,13.00
2019-04-30T03:57:15.948Z,12.10
2019-04-30T03:59:45.710Z,13.97
2019-04-30T04:02:41.110Z,12.63
2019-04-30T04:05:32.843Z,11.17
2019-04-30T04:08:21.121Z,11.27
2019-04-30T04:11:12.469Z,11.43
2019-04-30T04:13:42.179Z,12.57
2019-04-30T04:16:11.903Z,12.30
2019-04-30T04:18:41.645Z,16.90
2019-04-30T04:21:16.474Z,12.87
2019-04-30T04:23:42.664Z,12.90
2019-04-30T04:26:12.430Z,12.93
2019-04-30T04:28:43.563Z,8.80
2019-04-30T04:31:13.483Z,12.33
2019-04-30T04:33:43.146Z,10.83
2019-04-30T04:36:12.747Z,12.97
2019-04-30T04:38:42.462Z,11.23
2019-04-30T04:41:12.194Z,10.47
2019-04-30T04:43:41.872Z,10.40
2019-04-30T04:46:11.604Z,14.03
2019-04-30T04:48:41.313Z,11.50
2019-04-30T04:51:27.188Z,12.33
2019-04-30T04:53:42.204Z,11.27
2019-04-30T04:56:11.883Z,12.33
2019-04-30T04:58:41.474Z,10.77
2019-04-30T05:01:11.913Z,12.87
2019-04-30T05:03:41.724Z,14.33
2019-04-30T05:06:11.956Z,12.90
2019-04-30T05:08:43.443Z,17.27
2019-04-30T05:11:13.107Z,14.80
2019-04-30T05:13:42.775Z,11.10
2019-04-30T05:16:12.501Z,11.90
2019-04-30T05:18:42.489Z,11.60
2019-04-30T05:21:12.138Z,21.67
2019-04-30T05:23:42.738Z,11.73
2019-04-30T05:26:12.658Z,11.83
2019-04-30T05:28:42.293Z,17.07
2019-04-30T05:31:11.972Z,11.70
2019-04-30T05:33:41.723Z,11.00
2019-04-30T05:36:12.640Z,10.73
2019-04-30T05:38:42.340Z,8.93
2019-04-30T05:41:12.010Z,10.63
2019-04-30T05:43:41.667Z,12.47
2019-04-30T05:46:13.913Z,8.73
2019-04-30T05:48:42.739Z,9.37
2019-04-30T05:51:12.319Z,8.90
2019-04-30T05:53:41.966Z,6.63
2019-04-30T05:56:11.681Z,8.07
2019-04-30T05:58:41.862Z,6.33
2019-04-30T06:01:11.719Z,6.73
2019-04-30T06:03:41.408Z,6.60
2019-04-30T06:06:11.482Z,5.87
2019-04-30T06:08:49.074Z,5.63
2019-04-30T06:11:39.321Z,5.17
2019-04-30T06:14:48.413Z,5.47
2019-04-30T06:17:10.836Z,5.10
2019-04-30T06:19:40.818Z,5.23
2019-04-30T06:22:11.085Z,4.47
2019-04-30T06:24:41.472Z,5.20
2019-04-30T06:27:11.216Z,6.63
2019-04-30T06:29:41.481Z,6.53
2019-04-30T06:32:11.059Z,6.30
2019-04-30T06:34:41.975Z,6.17
2019-04-30T06:37:11.964Z,6.33
2019-04-30T06:39:41.635Z,5.33
2019-04-30T06:42:12.922Z,6.20
2019-04-30T06:44:43.330Z,8.30
2019-04-30T06:47:13.328Z,23.43
2019-04-30T06:49:42.986Z,12.40
2019-04-30T06:52:20.765Z,9.50
2019-04-30T06:54:43.800Z,8.50
2019-04-30T06:57:13.533Z,9.90
2019-04-30T06:59:43.219Z,7.60
2019-04-30T07:02:12.927Z,7.53
2019-04-30T07:04:42.651Z,9.17
2019-04-30T07:07:14.283Z,9.13
2019-04-30T07:10:00.922Z,8.70
2019-04-30T07:12:49.117Z,7.93
2019-04-30T07:15:19.680Z,7.20
2019-04-30T07:17:49.684Z,9.33
2019-04-30T07:20:19.400Z,10.33
2019-04-30T07:22:56.754Z,7.63
2019-04-30T07:25:20.491Z,7.37
2019-04-30T07:27:50.568Z,7.17
2019-04-30T07:30:20.498Z,7.10
2019-04-30T07:32:50.203Z,6.67
2019-04-30T07:35:19.931Z,7.63
2019-04-30T07:37:49.936Z,7.30
2019-04-30T07:40:19.737Z,8.63
2019-04-30T07:42:49.475Z,5.97
2019-04-30T07:45:19.603Z,7.73
2019-04-30T07:47:49.596Z,7.00
2019-04-30T07:50:21.557Z,8.17
2019-04-30T07:53:01.540Z,12.67
2019-04-30T07:55:21.883Z,7.80
2019-04-30T07:57:51.591Z,7.50
2019-04-30T08:00:21.313Z,6.87
2019-04-30T08:02:59.854Z,7.73
2019-04-30T08:05:34.327Z,8.53
2019-04-30T08:08:20.602Z,8.83
2019-04-30T08:10:35.344Z,9.53
2019-04-30T08:13:10.208Z,11.43
2019-04-30T08:15:36.357Z,9.60
2019-04-30T08:18:06.108Z,9.73
2019-04-30T08:20:35.792Z,9.43
2019-04-30T08:23:15.594Z,9.03
2019-04-30T08:25:38.993Z,10.17
2019-04-30T08:28:09.132Z,10.17
2019-04-30T08:30:39.222Z,9.90
2019-04-30T08:33:09.565Z,9.90
2019-04-30T08:35:39.770Z,10.87
2019-04-30T08:38:10.842Z,10.17
2019-04-30T08:40:53.255Z,11.00
2019-04-30T08:43:12.116Z,10.67
2019-04-30T08:45:41.782Z,9.63
2019-04-30T08:48:13.354Z,11.77
2019-04-30T08:50:43.122Z,10.27
2019-04-30T08:53:12.669Z,15.90
2019-04-30T08:55:42.300Z,12.37
2019-04-30T08:58:15.127Z,12.20
2019-04-30T09:00:43.323Z,13.33
2019-04-30T09:03:13.077Z,15.27
2019-04-30T09:06:05.131Z,10.37
2019-04-30T09:08:35.666Z,15.70
2019-04-30T09:11:05.319Z,14.57
2019-04-30T09:13:35.091Z,12.03
2019-04-30T09:16:04.749Z,13.60
2019-04-30T09:18:34.451Z,14.30
2019-04-30T09:21:06.361Z,13.50
2019-04-30T09:23:47.405Z,17.73
2019-04-30T09:26:08.704Z,13.87
2019-04-30T09:28:40.720Z,17.93
2019-04-30T09:31:09.459Z,14.97
2019-04-30T09:33:39.421Z,14.83
2019-04-30T09:36:09.269Z,14.43
2019-04-30T09:38:39.037Z,15.87
2019-04-30T09:41:09.284Z,14.80
2019-04-30T09:43:40.530Z,14.90
2019-04-30T09:46:22.092Z,13.77
2019-04-30T09:48:41.720Z,14.63
2019-04-30T09:51:11.795Z,24.93
2019-04-30T09:53:41.880Z,16.60
2019-04-30T09:56:11.725Z,18.40
2019-04-30T09:58:41.411Z,18.90
2019-04-30T10:01:11.081Z,17.77
2019-04-30T10:03:41.636Z,18.90
2019-04-30T10:06:12.017Z,22.87
2019-04-30T10:08:48.318Z,21.70
2019-04-30T10:11:37.735Z,16.97
2019-04-30T10:14:07.522Z,19.13
2019-04-30T10:16:42.951Z,21.73
2019-04-30T10:19:14.911Z,20.63
2019-04-30T10:21:43.991Z,20.93
2019-04-30T10:24:15.719Z,19.63
2019-04-30T10:26:45.155Z,23.27
2019-04-30T10:29:16.172Z,26.33
2019-04-30T10:31:45.823Z,28.00
2019-04-30T10:34:15.520Z,26.70
2019-04-30T10:36:45.236Z,28.77
2019-04-30T10:39:14.983Z,32.97
2019-04-30T10:41:44.674Z,32.20
2019-04-30T10:44:14.391Z,36.63
2019-04-30T10:46:44.236Z,34.97
2019-04-30T10:49:13.991Z,36.77
2019-04-30T10:51:43.808Z,53.77
2019-04-30T10:54:23.290Z,34.80
2019-04-30T10:56:44.737Z,35.27
2019-04-30T10:59:14.461Z,37.93
2019-04-30T11:01:44.315Z,38.83
2019-04-30T11:04:16.454Z,39.17
2019-04-30T11:06:46.064Z,45.37
2019-04-30T11:09:15.727Z,40.80
2019-04-30T11:11:45.371Z,43.97
2019-04-30T11:14:15.079Z,40.80
2019-04-30T11:16:44.952Z,39.97
2019-04-30T11:19:15.153Z,38.77
2019-04-30T11:21:45.043Z,41.23
2019-04-30T11:24:14.927Z,39.27
2019-04-30T11:26:45.203Z,39.67
2019-04-30T11:29:15.733Z,39.20
2019-04-30T11:32:00.345Z,41.80
2019-04-30T11:34:48.995Z,39.17
2019-04-30T11:37:18.758Z,40.23
2019-04-30T11:39:48.548Z,36.10
2019-04-30T11:42:18.148Z,42.37
2019-04-30T11:44:48.754Z,43.47
2019-04-30T11:47:34.395Z,39.93
2019-04-30T11:50:14.539Z,46.63
2019-04-30T11:52:44.243Z,46.30
2019-04-30T11:55:15.197Z,46.23
2019-04-30T11:57:44.892Z,41.13
2019-04-30T12:00:19.398Z,44.90
2019-04-30T12:02:52.926Z,41.17
2019-04-30T12:05:22.171Z,48.70
2019-04-30T12:08:10.739Z,46.93
2019-04-30T12:11:02.088Z,44.87
2019-04-30T12:13:34.592Z,44.63
2019-04-30T12:16:04.496Z,48.80
2019-04-30T12:18:34.207Z,47.00
2019-04-30T12:21:04.016Z,47.60
2019-04-30T12:23:33.771Z,43.77
2019-04-30T12:26:03.498Z,49.40
2019-04-30T12:28:33.283Z,48.60
2019-04-30T12:31:05.645Z,49.13
2019-04-30T12:33:34.255Z,49.20
2019-04-30T12:36:06.283Z,43.60
2019-04-30T12:38:35.337Z,46.10
2019-04-30T12:41:05.239Z,46.83
2019-04-30T12:43:35.002Z,43.67
2019-04-30T12:46:05.679Z,44.33
2019-04-30T12:48:53.652Z,46.10
2019-04-30T12:51:45.899Z,41.30
2019-04-30T12:54:32.779Z,41.67
2019-04-30T12:57:13.167Z,45.20
2019-04-30T12:59:44.367Z,45.20
2019-04-30T13:02:14.099Z,40.77
2019-04-30T13:04:43.691Z,43.27
2019-04-30T13:07:14.031Z,39.67
2019-04-30T13:09:44.788Z,43.50
2019-04-30T13:12:15.768Z,43.93
2019-04-30T13:14:51.481Z,40.87
2019-04-30T13:17:17.167Z,41.97
2019-04-30T13:19:46.923Z,47.90
2019-04-30T13:22:16.592Z,40.10
2019-04-30T13:24:46.332Z,46.03
2019-04-30T13:27:16.008Z,42.47
2019-04-30T13:29:53.316Z,44.90
2019-04-30T13:32:30.016Z,38.47
2019-04-30T13:35:00.774Z,39.67
2019-04-30T13:37:38.984Z,36.47
2019-04-30T13:40:20.291Z,43.73
2019-04-30T13:42:50.779Z,38.87
2019-04-30T13:45:20.779Z,37.60
2019-04-30T13:47:50.775Z,33.70
2019-04-30T13:50:21.547Z,42.93
2019-04-30T13:52:51.407Z,38.63
2019-04-30T13:55:21.119Z,35.00
2019-04-30T13:57:50.802Z,36.63
2019-04-30T14:00:24.712Z,34.13
2019-04-30T14:03:10.135Z,36.80
2019-04-30T14:05:39.877Z,31.60
2019-04-30T14:08:30.038Z,25.57
2019-04-30T14:10:59.751Z,31.40
2019-04-30T14:13:29.414Z,32.83
2019-04-30T14:15:59.242Z,35.83
2019-04-30T14:18:33.824Z,38.80
2019-04-30T14:21:01.073Z,33.60
2019-04-30T14:23:30.746Z,32.77
2019-04-30T14:26:01.222Z,26.63
2019-04-30T14:28:30.862Z,26.70
2019-04-30T14:31:00.567Z,27.13
2019-04-30T14:33:30.293Z,26.10
2019-04-30T14:36:01.011Z,29.97
2019-04-30T14:38:30.734Z,30.50
2019-04-30T14:41:01.510Z,31.90
2019-04-30T14:43:54.648Z,28.47
2019-04-30T14:46:43.806Z,26.20
2019-04-30T14:49:33.793Z,28.83
2019-04-30T14:52:04.533Z,23.53
2019-04-30T14:54:51.738Z,27.80
2019-04-30T14:57:42.172Z,28.93
2019-04-30T15:00:45.691Z,24.70
2019-04-30T15:03:16.542Z,27.90
2019-04-30T15:05:50.972Z,37.70
2019-04-30T15:08:19.326Z,40.30
2019-04-30T15:10:48.909Z,45.53
2019-04-30T15:13:19.493Z,41.57
2019-04-30T15:15:49.833Z,39.80
2019-04-30T15:18:19.550Z,38.70
2019-04-30T15:20:49.894Z,32.97
2019-04-30T15:23:31.975Z,28.87
2019-04-30T15:26:01.564Z,24.37
2019-04-30T15:28:32.721Z,25.10
2019-04-30T15:31:21.511Z,25.83
2019-04-30T15:34:05.394Z,23.30
2019-04-30T15:36:35.106Z,28.13
2019-04-30T15:39:31.343Z,25.40
2019-04-30T15:42:02.193Z,25.00
2019-04-30T15:44:39.910Z,28.50
2019-04-30T15:47:04.724Z,27.77
2019-04-30T15:49:34.491Z,33.13
2019-04-30T15:52:04.737Z,53.00
2019-04-30T15:54:34.473Z,26.73
2019-04-30T15:57:05.074Z,27.83
2019-04-30T15:59:41.059Z,29.17
2019-04-30T16:02:53.470Z,24.10
2019-04-30T16:05:35.412Z,32.00
2019-04-30T16:08:18.884Z,28.57
2019-04-30T16:11:10.397Z,28.03
2019-04-30T16:13:56.128Z,30.23
2019-04-30T16:16:29.649Z,32.60
2019-04-30T16:18:59.374Z,32.47
2019-04-30T16:21:29.320Z,35.97
2019-04-30T16:23:59.298Z,32.83
2019-04-30T16:26:29.143Z,38.87
2019-04-30T16:28:59.039Z,32.80
2019-04-30T16:31:39.243Z,34.27
2019-04-30T16:34:08.818Z,29.70
2019-04-30T16:36:38.993Z,30.43
2019-04-30T16:39:09.855Z,30.43
2019-04-30T16:41:40.843Z,23.67
2019-04-30T16:44:10.890Z,24.53
2019-04-30T16:46:41.118Z,23.43
2019-04-30T16:49:13.413Z,22.03
2019-04-30T16:51:42.059Z,25.83
2019-04-30T16:54:11.812Z,24.57
2019-04-30T16:56:41.512Z,23.00
2019-04-30T16:59:12.930Z,19.17
2019-04-30T17:01:42.578Z,39.47
2019-04-30T17:04:46.203Z,25.57
2019-04-30T17:07:25.488Z,18.43
2019-04-30T17:10:02.284Z,18.30
2019-04-30T17:12:43.643Z,24.73
2019-04-30T17:15:32.775Z,19.87
2019-04-30T17:18:03.130Z,20.80
2019-04-30T17:20:32.852Z,23.27
2019-04-30T17:23:02.556Z,18.70
2019-04-30T17:25:32.355Z,20.10
2019-04-30T17:28:02.124Z,20.97
2019-04-30T17:30:31.708Z,22.77
2019-04-30T17:33:01.435Z,19.63
2019-04-30T17:35:31.128Z,16.70
2019-04-30T17:38:00.829Z,19.93
2019-04-30T17:40:30.590Z,19.70
2019-04-30T17:43:00.251Z,24.53
2019-04-30T17:45:29.975Z,27.30
2019-04-30T17:47:59.719Z,21.83
2019-04-30T17:50:29.659Z,25.40
2019-04-30T17:53:00.678Z,25.97
2019-04-30T17:55:30.483Z,28.70
2019-04-30T17:58:00.209Z,26.23
2019-04-30T18:00:31.445Z,27.73
2019-04-30T18:03:01.785Z,27.47
2019-04-30T18:05:31.659Z,30.13
2019-04-30T18:08:01.302Z,28.23
2019-04-30T18:10:31.279Z,30.33
2019-04-30T18:13:00.860Z,33.57
2019-04-30T18:15:31.267Z,30.73
2019-04-30T18:18:19.859Z,31.67
2019-04-30T18:20:56.922Z,32.53
2019-04-30T18:24:00.586Z,33.53
2019-04-30T18:26:30.279Z,33.10
2019-04-30T18:28:59.971Z,32.73
2019-04-30T18:31:29.919Z,28.57
2019-04-30T18:33:59.588Z,28.67
2019-04-30T18:36:29.423Z,29.90
2019-04-30T18:38:59.219Z,38.50
2019-04-30T18:41:28.951Z,29.70
2019-04-30T18:43:59.667Z,30.27
2019-04-30T18:46:29.472Z,33.07
2019-04-30T18:48:59.299Z,29.47
2019-04-30T18:51:38.395Z,33.03
2019-04-30T18:54:00.373Z,33.40
2019-04-30T18:56:30.052Z,32.77
2019-04-30T18:58:59.827Z,31.70
2019-04-30T19:01:29.492Z,31.83
2019-04-30T19:04:01.168Z,34.20
2019-04-30T19:06:30.554Z,31.57
2019-04-30T19:09:29.706Z,34.47
2019-04-30T19:12:19.421Z,38.83
2019-04-30T19:15:05.927Z,39.40
2019-04-30T19:17:51.206Z,34.83
2019-04-30T19:20:38.809Z,35.10
2019-04-30T19:23:10.144Z,34.50
2019-04-30T19:25:39.977Z,39.73
2019-04-30T19:28:14.233Z,35.50
2019-04-30T19:30:41.063Z,38.83
2019-04-30T19:33:10.923Z,32.67
2019-04-30T19:35:40.503Z,30.57
2019-04-30T19:38:10.235Z,37.87
2019-04-30T19:40:40.200Z,35.97
2019-04-30T19:43:09.820Z,32.27
2019-04-30T19:45:39.503Z,34.13
2019-04-30T19:48:09.238Z,38.73
2019-04-30T19:50:38.983Z,39.13
2019-04-30T19:53:08.869Z,48.77
2019-04-30T19:55:39.361Z,36.57
2019-04-30T19:58:10.787Z,33.60
2019-04-30T20:00:42.331Z,35.40
2019-04-30T20:03:12.184Z,35.90
2019-04-30T20:05:41.916Z,31.67
2019-04-30T20:08:11.597Z,35.47
2019-04-30T20:10:41.317Z,43.23
2019-04-30T20:13:11.054Z,33.93
2019-04-30T20:15:40.733Z,34.10
2019-04-30T20:18:10.457Z,35.67
2019-04-30T20:20:41.715Z,37.40
2019-04-30T20:23:11.543Z,35.73
2019-04-30T20:25:41.231Z,37.67
2019-04-30T20:28:12.319Z,38.47
2019-04-30T20:30:42.254Z,33.40
2019-04-30T20:33:12.035Z,34.87
2019-04-30T20:35:41.612Z,35.57
2019-04-30T20:38:36.029Z,31.43
2019-04-30T20:41:09.041Z,32.57
2019-04-30T20:43:39.487Z,39.43
2019-04-30T20:46:09.227Z,40.53
2019-04-30T20:48:39.339Z,36.83
2019-04-30T20:51:10.286Z,36.70
2019-04-30T20:53:41.020Z,38.30
2019-04-30T20:56:10.747Z,33.23
